Time;durP1;ratioP1;P1;durP2;ratioP2;P2;SDS_P1;SDS_P2;PMS_P1;PMS_P2;Temp;Humidity;BMP_temperature;BMP_pressure;BME280_temperature;BME280_humidity;BME280_pressure;Samples;Min_cycle;Max_cycle;Signal;HPM_P1;HPM_P2
2022/11/18 00:01:04;;;;;;;;;;;2.90;98.70;;;;;;5009048;28;1148;-69
2022/11/18 00:03:32;;;;;;;;;;;2.90;98.80;;;;;;4996796;28;1428;-69
2022/11/18 00:05:59;;;;;;;;;;;2.90;98.80;;;;;;5005342;28;1076;-69
2022/11/18 00:08:27;;;;;;;;;;;2.80;99.10;;;;;;4997125;28;1495;-69
2022/11/18 00:10:54;;;;;;;;;;;2.90;98.80;;;;;;4996581;28;1093;-71
2022/11/18 00:16:09;;;;;;;;;;;2.80;99.50;;;;;;5005963;28;1098;-70
2022/11/18 00:18:37;;;;;;;;;;;2.90;98.90;;;;;;5003013;28;1910;-69
2022/11/18 00:21:06;;;;;;;;;;;3.00;98.80;;;;;;5002645;28;1101;-70
2022/11/18 00:23:34;;;;;;;;;;;2.80;99.10;;;;;;5001497;28;1391;-69
2022/11/18 00:26:02;;;;;;;;;;;2.80;99.40;;;;;;4999815;28;1205;-70
2022/11/18 00:28:31;;;;;;;;;;;2.80;98.80;;;;;;4995140;28;1113;-71
2022/11/18 00:31:03;;;;;;;;;;;2.90;99.30;;;;;;4997121;28;994;-70
2022/11/18 00:33:31;;;;;;;;;;;2.70;98.80;;;;;;5002274;28;1399;-70
2022/11/18 00:35:58;;;;;;;;;;;2.80;99.00;;;;;;5007320;28;1609;-69
2022/11/18 00:38:26;;;;;;;;;;;2.80;98.80;;;;;;5005406;28;1989;-71
2022/11/18 00:41:00;;;;;;;;;;;2.70;99.40;;;;;;5007187;28;1233;-71
2022/11/18 00:43:27;;;;;;;;;;;2.70;99.30;;;;;;5000332;28;1280;-71
2022/11/18 00:45:56;;;;;;;;;;;2.80;99.30;;;;;;5002335;28;1477;-71
2022/11/18 00:48:24;;;;;;;;;;;2.70;99.10;;;;;;4995578;28;1101;-71
2022/11/18 00:50:52;;;;;;;;;;;2.70;99.20;;;;;;4995094;28;1436;-70
2022/11/18 00:53:20;;;;;;;;;;;2.80;99.50;;;;;;4999182;28;1225;-69
2022/11/18 00:55:48;;;;;;;;;;;2.80;99.20;;;;;;5003505;28;1022;-71
2022/11/18 00:58:15;;;;;;;;;;;2.70;99.20;;;;;;4995997;28;1987;-70
2022/11/18 01:00:44;;;;;;;;;;;2.70;98.70;;;;;;5007671;28;2241;-69
2022/11/18 01:03:12;;;;;;;;;;;2.60;99.30;;;;;;4997636;28;2126;-70
2022/11/18 01:05:40;;;;;;;;;;;2.60;99.20;;;;;;4995580;28;1166;-70
2022/11/18 01:08:09;;;;;;;;;;;2.70;98.90;;;;;;5004946;28;1069;-71
2022/11/18 01:10:37;;;;;;;;;;;2.70;98.80;;;;;;5003595;28;1497;-69
2022/11/18 01:13:19;;;;;;;;;;;2.70;98.70;;;;;;5003922;28;1500;-69
2022/11/18 01:15:47;;;;;;;;;;;2.60;99.20;;;;;;5005057;28;1318;-71
2022/11/18 01:18:16;;;;;;;;;;;2.60;99.00;;;;;;5007778;28;1907;-72
2022/11/18 01:20:44;;;;;;;;;;;2.70;99.20;;;;;;4999899;28;1021;-72
2022/11/18 01:23:12;;;;;;;;;;;2.60;98.80;;;;;;5006249;28;1345;-72
2022/11/18 01:25:40;;;;;;;;;;;2.90;98.80;;;;;;4999188;28;1631;-72
2022/11/18 01:28:07;;;;;;;;;;;2.50;99.00;;;;;;5002954;28;1034;-71
2022/11/18 01:30:36;;;;;;;;;;;2.60;99.20;;;;;;5003083;28;1077;-72
2022/11/18 01:33:04;;;;;;;;;;;2.50;98.90;;;;;;5003314;28;1667;-71
2022/11/18 01:35:35;;;;;;;;;;;2.30;98.90;;;;;;4997686;28;1112;-72
2022/11/18 01:38:03;;;;;;;;;;;2.50;99.00;;;;;;5007426;28;1906;-72
2022/11/18 01:40:31;;;;;;;;;;;2.80;98.90;;;;;;5003159;28;1235;-71
2022/11/18 01:42:59;;;;;;;;;;;2.50;98.80;;;;;;5005036;28;1269;-71
2022/11/18 01:45:29;;;;;;;;;;;2.40;98.70;;;;;;5008044;28;1162;-70
2022/11/18 01:48:00;;;;;;;;;;;2.40;98.50;;;;;;5000765;28;1671;-72
2022/11/18 01:50:28;;;;;;;;;;;2.50;98.80;;;;;;5004634;28;1054;-71
2022/11/18 01:52:59;;;;;;;;;;;2.50;98.70;;;;;;5008458;28;1333;-71
2022/11/18 01:55:28;;;;;;;;;;;2.60;98.90;;;;;;5000655;28;2007;-69
2022/11/18 01:58:00;;;;;;;;;;;2.50;98.80;;;;;;5008802;28;1910;-70
2022/11/18 02:00:27;;;;;;;;;;;2.40;98.70;;;;;;5003379;28;1049;-69
2022/11/18 02:02:56;;;;;;;;;;;2.40;99.00;;;;;;5002143;28;1291;-70
2022/11/18 02:05:24;;;;;;;;;;;2.40;98.70;;;;;;4998949;28;1160;-69
2022/11/18 02:07:52;;;;;;;;;;;2.40;99.00;;;;;;5008416;28;1030;-69
2022/11/18 02:10:23;;;;;;;;;;;2.50;99.10;;;;;;5002516;28;1025;-71
2022/11/18 02:12:52;;;;;;;;;;;2.50;98.40;;;;;;5004366;28;1373;-69
2022/11/18 02:18:05;;;;;;;;;;;2.40;98.70;;;;;;5385942;22;1910;-90
2022/11/18 02:20:34;;;;;;;;;;;2.50;98.60;;;;;;5020988;28;1655;-90
2022/11/18 02:23:24;;;;;;;;;;;2.40;97.90;;;;;;5020139;28;980;-88
2022/11/18 02:25:59;;;;;;;;;;;2.40;98.50;;;;;;5020038;28;1179;-89
2022/11/18 02:28:35;;;;;;;;;;;2.40;98.40;;;;;;5015086;28;1564;-90
2022/11/18 02:31:07;;;;;;;;;;;2.40;98.90;;;;;;5018532;28;1538;-90
2022/11/18 02:33:38;;;;;;;;;;;2.40;98.40;;;;;;5004495;28;1021;-87
2022/11/18 02:36:08;;;;;;;;;;;2.30;98.60;;;;;;5003145;28;1718;-88
2022/11/18 02:38:39;;;;;;;;;;;2.30;98.80;;;;;;5004469;28;1906;-89
2022/11/18 02:41:08;;;;;;;;;;;2.40;98.50;;;;;;5003877;28;1410;-89
2022/11/18 02:43:39;;;;;;;;;;;2.50;98.20;;;;;;5004972;28;1694;-88
2022/11/18 02:46:10;;;;;;;;;;;2.60;98.70;;;;;;5004767;28;1097;-89
2022/11/18 02:48:43;;;;;;;;;;;2.50;98.60;;;;;;5018179;28;1619;-88
2022/11/18 02:51:12;;;;;;;;;;;2.70;98.20;;;;;;5006857;28;1532;-91
2022/11/18 02:53:40;;;;;;;;;;;2.30;98.50;;;;;;5012048;28;1147;-90
2022/11/18 02:56:09;;;;;;;;;;;2.60;98.70;;;;;;5014984;28;1542;-88
2022/11/18 02:58:36;;;;;;;;;;;2.40;98.30;;;;;;5019374;28;1910;-89
2022/11/18 03:01:04;;;;;;;;;;;2.50;98.20;;;;;;5017091;28;1493;-89
2022/11/18 03:03:34;;;;;;;;;;;2.40;98.10;;;;;;5010897;28;1521;-89
2022/11/18 03:06:05;;;;;;;;;;;2.40;98.20;;;;;;5020879;28;1749;-87
2022/11/18 03:08:36;;;;;;;;;;;2.40;98.00;;;;;;5016042;28;1571;-88
2022/11/18 03:11:08;;;;;;;;;;;2.40;98.60;;;;;;5012827;28;1547;-86
2022/11/18 03:13:41;;;;;;;;;;;2.40;98.20;;;;;;5001385;28;1559;-89
2022/11/18 03:16:11;;;;;;;;;;;2.30;98.00;;;;;;5001851;28;1022;-89
2022/11/18 03:18:42;;;;;;;;;;;2.30;98.20;;;;;;5001044;28;1906;-88
2022/11/18 03:21:12;;;;;;;;;;;2.30;98.00;;;;;;5002628;28;1728;-90
2022/11/18 03:23:42;;;;;;;;;;;2.20;98.20;;;;;;5003108;28;1009;-90
2022/11/18 03:26:12;;;;;;;;;;;2.30;97.90;;;;;;5006237;28;1498;-90
2022/11/18 03:28:42;;;;;;;;;;;2.70;98.10;;;;;;5033330;28;1524;-90
2022/11/18 03:31:22;;;;;;;;;;;2.20;98.40;;;;;;5034494;28;1565;-89
2022/11/18 03:33:56;;;;;;;;;;;2.20;98.40;;;;;;5018440;28;1448;-90
2022/11/18 03:36:32;;;;;;;;;;;2.20;97.60;;;;;;5022928;28;1590;-90
2022/11/18 03:39:01;;;;;;;;;;;2.30;98.20;;;;;;5022778;28;1907;-92
2022/11/18 03:41:31;;;;;;;;;;;2.10;98.50;;;;;;5029947;28;1551;-92
2022/11/18 03:44:05;;;;;;;;;;;2.30;98.50;;;;;;5038815;28;1843;-91
2022/11/18 03:46:36;;;;;;;;;;;2.20;98.30;;;;;;5038690;28;1607;-91
2022/11/18 03:49:07;;;;;;;;;;;2.30;98.30;;;;;;5025302;28;1717;-92
2022/11/18 03:51:37;;;;;;;;;;;2.40;98.00;;;;;;5024462;28;1642;-92
2022/11/18 03:54:08;;;;;;;;;;;2.30;98.20;;;;;;5022810;28;1400;-91
2022/11/18 03:56:42;;;;;;;;;;;2.20;98.20;;;;;;5021026;28;1490;-91
2022/11/18 03:59:21;;;;;;;;;;;2.10;98.10;;;;;;5022386;28;2308;-93
2022/11/18 04:01:56;;;;;;;;;;;2.10;98.30;;;;;;5025178;28;1644;-91
2022/11/18 04:04:41;;;;;;;;;;;2.30;97.90;;;;;;5025129;28;1546;-89
2022/11/18 04:07:11;;;;;;;;;;;2.20;98.30;;;;;;5023007;28;1552;-90
2022/11/18 04:09:42;;;;;;;;;;;2.20;97.80;;;;;;5022654;28;1399;-90
2022/11/18 04:12:12;;;;;;;;;;;2.10;98.10;;;;;;5023786;28;1516;-90
2022/11/18 04:14:42;;;;;;;;;;;2.20;98.10;;;;;;5024721;28;1600;-88
2022/11/18 04:17:11;;;;;;;;;;;2.30;98.20;;;;;;5022118;28;1563;-92
2022/11/18 04:19:40;;;;;;;;;;;2.00;98.20;;;;;;5021101;28;1980;-91
2022/11/18 04:22:10;;;;;;;;;;;2.30;98.20;;;;;;5024505;28;1697;-91
2022/11/18 04:24:47;;;;;;;;;;;2.40;98.10;;;;;;5024138;28;1554;-92
2022/11/18 04:27:18;;;;;;;;;;;2.30;98.30;;;;;;5026411;28;1427;-91
2022/11/18 04:29:49;;;;;;;;;;;2.00;97.40;;;;;;5028434;28;1890;-92
2022/11/18 04:32:18;;;;;;;;;;;2.20;97.20;;;;;;5027064;28;1582;-90
2022/11/18 04:34:47;;;;;;;;;;;2.10;97.10;;;;;;5014040;28;1607;-88
2022/11/18 04:37:43;;;;;;;;;;;2.00;97.60;;;;;;5037065;28;1537;-91
2022/11/18 04:43:11;;;;;;;;;;;1.80;97.40;;;;;;5000873;28;1549;-91
2022/11/18 04:45:39;;;;;;;;;;;2.10;97.20;;;;;;4993762;28;1474;-90
2022/11/18 04:48:07;;;;;;;;;;;2.00;97.10;;;;;;4987099;28;1714;-90
2022/11/18 04:50:36;;;;;;;;;;;2.10;97.30;;;;;;4990619;28;1559;-91
2022/11/18 04:53:04;;;;;;;;;;;1.90;97.70;;;;;;4991743;28;1551;-93
2022/11/18 04:55:32;;;;;;;;;;;2.30;97.60;;;;;;4985640;28;1557;-92
2022/11/18 04:58:02;;;;;;;;;;;2.20;97.10;;;;;;4982447;28;1718;-91
2022/11/18 05:00:44;;;;;;;;;;;2.20;97.40;;;;;;4961135;29;1906;-88
2022/11/18 05:03:12;;;;;;;;;;;1.90;97.10;;;;;;4967667;28;1680;-88
2022/11/18 05:05:41;;;;;;;;;;;2.10;97.60;;;;;;4978331;28;1556;-90
2022/11/18 05:08:09;;;;;;;;;;;2.30;97.20;;;;;;4979064;28;1574;-88
2022/11/18 05:10:50;;;;;;;;;;;;;;;;;;;;;
2022/11/18 05:13:35;;;;;;;;;;;2.20;97.10;;;;;;4991975;28;1631;-90
2022/11/18 05:16:06;;;;;;;;;;;2.10;97.40;;;;;;4996496;28;1536;-91
2022/11/18 05:18:33;;;;;;;;;;;2.10;97.20;;;;;;5014556;28;1443;-91
2022/11/18 05:21:06;;;;;;;;;;;2.10;97.10;;;;;;5016481;28;1986;-89
2022/11/18 05:23:40;;;;;;;;;;;2.20;97.10;;;;;;5023892;28;1498;-89
2022/11/18 05:26:08;;;;;;;;;;;2.10;96.60;;;;;;5026914;28;1520;-88
2022/11/18 05:28:37;;;;;;;;;;;2.00;96.70;;;;;;5018190;28;1547;-90
2022/11/18 05:31:07;;;;;;;;;;;2.10;96.80;;;;;;5012792;28;1552;-89
2022/11/18 05:33:35;;;;;;;;;;;2.40;97.20;;;;;;5017288;28;1584;-91
2022/11/18 05:36:03;;;;;;;;;;;2.20;96.30;;;;;;5032122;28;1536;-90
2022/11/18 05:38:33;;;;;;;;;;;2.40;97.00;;;;;;5015265;28;1605;-90
2022/11/18 05:41:04;;;;;;;;;;;2.20;96.20;;;;;;5024311;28;1994;-88
2022/11/18 05:43:31;;;;;;;;;;;1.70;96.40;;;;;;5026771;28;1718;-89
2022/11/18 05:45:59;;;;;;;;;;;1.90;95.50;;;;;;5037727;28;1551;-89
2022/11/18 05:48:27;;;;;;;;;;;2.00;96.10;;;;;;5026897;28;1671;-88
2022/11/18 05:50:55;;;;;;;;;;;2.20;96.50;;;;;;5014425;28;1572;-88
2022/11/18 05:53:24;;;;;;;;;;;1.90;96.30;;;;;;5012679;28;1617;-90
2022/11/18 05:56:00;;;;;;;;;;;2.00;96.40;;;;;;5023037;28;1533;-89
2022/11/18 05:58:47;;;;;;;;;;;2.00;96.80;;;;;;5007242;28;1572;-91
2022/11/18 06:04:51;;;;;;;;;;;2.20;97.20;;;;;;4958476;28;1604;-89
2022/11/18 06:07:22;;;;;;;;;;;2.20;96.30;;;;;;5019175;28;1802;-91
2022/11/18 06:10:05;;;;;;;;;;;2.50;96.70;;;;;;5031328;28;1516;-90
2022/11/18 06:16:32;;;;;;;;;;;1.80;97.20;;;;;;4962327;28;1487;-86
2022/11/18 06:19:21;;;;;;;;;;;2.10;96.00;;;;;;4990108;22;1808;-72
2022/11/18 06:21:49;;;;;;;;;;;2.20;97.00;;;;;;5030343;28;1914;-72
2022/11/18 06:24:17;;;;;;;;;;;2.00;97.20;;;;;;5016145;28;1096;-72
2022/11/18 06:26:45;;;;;;;;;;;2.00;97.10;;;;;;5012886;28;1140;-71
2022/11/18 06:29:14;;;;;;;;;;;2.00;97.30;;;;;;5011850;28;1127;-72
2022/11/18 06:31:44;;;;;;;;;;;1.90;97.00;;;;;;5015148;28;1265;-71
2022/11/18 06:34:12;;;;;;;;;;;2.00;97.50;;;;;;5014384;28;990;-73
2022/11/18 06:36:39;;;;;;;;;;;2.10;97.30;;;;;;5016316;28;1053;-75
2022/11/18 06:39:07;;;;;;;;;;;2.00;97.20;;;;;;5014900;28;1696;-74
2022/11/18 06:41:35;;;;;;;;;;;2.10;97.70;;;;;;5015852;28;1989;-77
2022/11/18 06:44:02;;;;;;;;;;;2.20;97.20;;;;;;5014990;28;1097;-74
2022/11/18 06:49:16;;;;;;;;;;;1.90;97.00;;;;;;5015025;28;1078;-71
2022/11/18 06:51:44;;;;;;;;;;;1.90;97.30;;;;;;5015252;28;1247;-72
2022/11/18 06:54:12;;;;;;;;;;;2.00;97.00;;;;;;5015175;28;1025;-70
2022/11/18 06:56:39;;;;;;;;;;;2.00;97.40;;;;;;5015097;28;1156;-71
2022/11/18 06:59:07;;;;;;;;;;;1.80;97.00;;;;;;5014429;28;1597;-70
2022/11/18 07:01:36;;;;;;;;;;;1.90;97.30;;;;;;5014731;28;1910;-70
2022/11/18 07:04:04;;;;;;;;;;;2.10;98.40;;;;;;5014637;28;1089;-70
2022/11/18 07:06:34;;;;;;;;;;;2.00;96.50;;;;;;5014945;28;1056;-70
2022/11/18 07:09:03;;;;;;;;;;;2.00;97.10;;;;;;5016013;28;1048;-69
2022/11/18 07:11:30;;;;;;;;;;;2.00;96.30;;;;;;5021342;28;1687;-70
2022/11/18 07:13:58;;;;;;;;;;;2.00;96.50;;;;;;5030232;28;1884;-70
2022/11/18 07:16:26;;;;;;;;;;;2.00;96.10;;;;;;5014866;28;1001;-71
2022/11/18 07:18:54;;;;;;;;;;;2.10;96.50;;;;;;5014459;28;1483;-70
2022/11/18 07:21:23;;;;;;;;;;;1.90;96.30;;;;;;5014514;28;1991;-71
2022/11/18 07:23:52;;;;;;;;;;;2.10;96.30;;;;;;5013848;28;1724;-69
2022/11/18 07:26:20;;;;;;;;;;;1.90;95.20;;;;;;5013346;28;1131;-70
2022/11/18 07:28:48;;;;;;;;;;;2.00;95.40;;;;;;5012299;28;1672;-71
2022/11/18 07:31:16;;;;;;;;;;;2.00;95.00;;;;;;5014750;28;1287;-71
2022/11/18 07:33:45;;;;;;;;;;;1.70;95.10;;;;;;5013066;28;2298;-71
2022/11/18 07:36:13;;;;;;;;;;;1.80;95.70;;;;;;5014599;28;1108;-70
2022/11/18 07:38:41;;;;;;;;;;;1.90;95.30;;;;;;5013538;28;1186;-70
2022/11/18 07:41:11;;;;;;;;;;;1.90;94.70;;;;;;5014021;28;2003;-70
2022/11/18 07:43:39;;;;;;;;;;;1.70;94.70;;;;;;5012566;28;1061;-69
2022/11/18 07:46:10;;;;;;;;;;;1.70;94.80;;;;;;5013909;28;1096;-70
2022/11/18 07:48:38;;;;;;;;;;;1.80;94.40;;;;;;5013867;28;1422;-68
2022/11/18 07:51:06;;;;;;;;;;;1.80;94.50;;;;;;5014537;28;1070;-69
2022/11/18 07:53:34;;;;;;;;;;;2.00;94.00;;;;;;5013700;28;1177;-68
2022/11/18 07:56:02;;;;;;;;;;;2.00;93.80;;;;;;5014308;28;1089;-69
2022/11/18 07:58:31;;;;;;;;;;;2.10;94.00;;;;;;5012785;28;1526;-69
2022/11/18 08:00:59;;;;;;;;;;;2.10;93.90;;;;;;5013952;28;1985;-69
2022/11/18 08:03:28;;;;;;;;;;;2.10;94.60;;;;;;5014408;28;1287;-69
2022/11/18 08:05:58;;;;;;;;;;;2.20;94.30;;;;;;5013209;28;1808;-73
2022/11/18 08:08:25;;;;;;;;;;;2.30;94.30;;;;;;5016060;28;1022;-69
2022/11/18 08:10:55;;;;;;;;;;;2.20;93.40;;;;;;5014148;28;1146;-70
2022/11/18 08:13:22;;;;;;;;;;;2.20;93.30;;;;;;5013530;28;1739;-70
2022/11/18 08:15:51;;;;;;;;;;;2.30;93.00;;;;;;5013784;28;1164;-70
2022/11/18 08:18:19;;;;;;;;;;;2.10;92.60;;;;;;5013411;28;1120;-70
2022/11/18 08:20:47;;;;;;;;;;;2.10;92.40;;;;;;5013083;28;1989;-70
2022/11/18 08:23:16;;;;;;;;;;;2.20;92.50;;;;;;5012373;28;1466;-70
2022/11/18 08:25:44;;;;;;;;;;;2.30;92.40;;;;;;5013268;28;1175;-70
2022/11/18 08:28:13;;;;;;;;;;;2.20;91.30;;;;;;5013455;28;1651;-70
2022/11/18 08:30:41;;;;;;;;;;;2.20;92.20;;;;;;5012799;28;2371;-70
2022/11/18 08:33:10;;;;;;;;;;;2.10;91.60;;;;;;5013345;28;1673;-70
2022/11/18 08:35:37;;;;;;;;;;;2.00;91.80;;;;;;5013393;28;1198;-69
2022/11/18 08:38:05;;;;;;;;;;;2.00;91.30;;;;;;5013725;28;910;-70
2022/11/18 08:40:33;;;;;;;;;;;2.00;91.30;;;;;;5010936;28;1029;-70
2022/11/18 08:43:01;;;;;;;;;;;2.10;91.50;;;;;;5012492;28;1906;-69
2022/11/18 08:45:29;;;;;;;;;;;2.20;91.00;;;;;;5013172;28;1105;-70
2022/11/18 08:47:56;;;;;;;;;;;2.20;91.20;;;;;;5013161;28;1048;-72
2022/11/18 08:50:25;;;;;;;;;;;2.20;91.00;;;;;;5012674;28;1406;-72
2022/11/18 08:52:53;;;;;;;;;;;2.20;91.50;;;;;;5011233;28;1676;-70
2022/11/18 08:55:21;;;;;;;;;;;2.50;91.30;;;;;;5010920;28;1102;-70
2022/11/18 08:57:48;;;;;;;;;;;2.20;90.80;;;;;;5010352;28;1639;-71
2022/11/18 09:00:16;;;;;;;;;;;2.20;91.30;;;;;;5011399;28;1072;-70
2022/11/18 09:02:44;;;;;;;;;;;2.30;90.60;;;;;;5010856;28;1991;-70
2022/11/18 09:05:11;;;;;;;;;;;2.10;89.60;;;;;;5010898;28;1098;-70
2022/11/18 09:07:40;;;;;;;;;;;2.20;89.40;;;;;;5009268;28;1183;-70
2022/11/18 09:10:09;;;;;;;;;;;2.10;87.80;;;;;;5009366;28;1021;-70
2022/11/18 09:12:36;;;;;;;;;;;2.30;87.60;;;;;;5009577;28;1244;-69
2022/11/18 09:15:04;;;;;;;;;;;2.30;88.00;;;;;;5010191;28;1206;-71
2022/11/18 09:17:52;;;;;;;;;;;2.20;88.00;;;;;;5011587;28;1593;-70
2022/11/18 09:20:19;;;;;;;;;;;2.40;87.40;;;;;;5012412;28;1044;-71
2022/11/18 09:22:48;;;;;;;;;;;2.40;88.00;;;;;;5023980;28;1910;-71
2022/11/18 09:25:16;;;;;;;;;;;2.50;86.50;;;;;;5021779;28;1458;-70
2022/11/18 09:27:43;;;;;;;;;;;2.50;86.30;;;;;;5013210;28;1108;-69
2022/11/18 09:30:11;;;;;;;;;;;2.40;87.30;;;;;;5012347;28;1808;-71
2022/11/18 09:32:39;;;;;;;;;;;2.60;87.00;;;;;;5013065;28;1270;-68
2022/11/18 09:35:06;;;;;;;;;;;2.40;86.60;;;;;;5012654;28;1044;-69
2022/11/18 09:37:34;;;;;;;;;;;2.50;87.40;;;;;;5012599;28;1037;-68
2022/11/18 09:40:03;;;;;;;;;;;2.50;86.30;;;;;;5013002;28;1519;-69
2022/11/18 09:42:38;;;;;;;;;;;2.70;86.20;;;;;;5012858;28;1938;-69
2022/11/18 09:45:12;;;;;;;;;;;2.60;86.00;;;;;;5011037;28;1387;-69
2022/11/18 09:47:48;;;;;;;;;;;2.70;85.60;;;;;;5012426;28;758;-68
2022/11/18 09:50:16;;;;;;;;;;;2.80;86.50;;;;;;5010674;28;1457;-66
2022/11/18 09:53:08;;;;;;;;;;;2.90;85.30;;;;;;5012103;28;1640;-68
2022/11/18 09:55:39;;;;;;;;;;;2.80;84.90;;;;;;5012378;28;1664;-72
2022/11/18 09:58:07;;;;;;;;;;;2.80;85.20;;;;;;5011344;28;1676;-73
2022/11/18 10:00:35;;;;;;;;;;;2.70;85.30;;;;;;5011257;28;1687;-73
2022/11/18 10:03:05;;;;;;;;;;;3.00;85.60;;;;;;5011940;28;1934;-70
2022/11/18 10:05:38;;;;;;;;;;;2.80;84.20;;;;;;5010071;28;1882;-68
2022/11/18 10:08:13;;;;;;;;;;;2.90;84.40;;;;;;5014436;28;1727;-68
2022/11/18 10:10:46;;;;;;;;;;;2.90;84.50;;;;;;5015701;28;2450;-68
2022/11/18 10:13:18;;;;;;;;;;;2.90;83.50;;;;;;5012041;28;1565;-69
2022/11/18 10:15:50;;;;;;;;;;;3.10;84.10;;;;;;5014134;28;1612;-69
2022/11/18 10:18:22;;;;;;;;;;;3.20;85.60;;;;;;5015062;28;1159;-68
2022/11/18 10:21:15;;;;;;;;;;;3.00;83.60;;;;;;5015606;28;2024;-68
2022/11/18 10:23:45;;;;;;;;;;;3.30;83.50;;;;;;5015413;28;1914;-68
2022/11/18 10:26:14;;;;;;;;;;;3.00;83.60;;;;;;5014972;28;1329;-69
2022/11/18 10:28:42;;;;;;;;;;;3.10;82.00;;;;;;5015030;28;1018;-69
2022/11/18 10:31:11;;;;;;;;;;;2.80;80.70;;;;;;5015650;28;1115;-68
2022/11/18 10:33:39;;;;;;;;;;;3.10;82.40;;;;;;5015592;28;1042;-69
2022/11/18 10:36:12;;;;;;;;;;;3.10;82.80;;;;;;5015318;28;1062;-69
2022/11/18 10:38:40;;;;;;;;;;;3.00;81.70;;;;;;5013883;28;1700;-69
2022/11/18 10:41:17;;;;;;;;;;;3.00;81.90;;;;;;5015527;28;1306;-69
2022/11/18 10:43:47;;;;;;;;;;;3.20;82.00;;;;;;5013241;28;1910;-69
2022/11/18 10:46:16;;;;;;;;;;;3.10;81.70;;;;;;5015361;28;1701;-69
2022/11/18 10:48:44;;;;;;;;;;;3.10;81.30;;;;;;5010026;28;1662;-69
2022/11/18 10:51:22;;;;;;;;;;;3.00;80.60;;;;;;5014731;28;1276;-69
2022/11/18 10:53:50;;;;;;;;;;;3.00;81.40;;;;;;5011983;28;1214;-68
2022/11/18 10:56:19;;;;;;;;;;;2.90;78.60;;;;;;5011375;28;1207;-69
2022/11/18 10:58:48;;;;;;;;;;;2.90;80.30;;;;;;5010815;28;1088;-71
2022/11/18 11:01:20;;;;;;;;;;;3.20;80.70;;;;;;5013628;28;1246;-69
2022/11/18 11:03:56;;;;;;;;;;;2.80;80.10;;;;;;5012436;28;1914;-69
2022/11/18 11:06:31;;;;;;;;;;;2.90;80.10;;;;;;5012375;28;1155;-69
2022/11/18 11:09:03;;;;;;;;;;;3.00;79.40;;;;;;5008239;28;1686;-68
2022/11/18 11:11:33;;;;;;;;;;;2.80;78.40;;;;;;5010369;28;1878;-68
2022/11/18 11:14:13;;;;;;;;;;;2.90;79.20;;;;;;5013539;28;1450;-69
2022/11/18 11:16:43;;;;;;;;;;;2.90;79.20;;;;;;5014310;28;1509;-69
2022/11/18 11:19:12;;;;;;;;;;;2.90;78.40;;;;;;5013370;28;1384;-70
2022/11/18 11:21:39;;;;;;;;;;;2.80;78.20;;;;;;5010923;28;1319;-69
2022/11/18 11:24:11;;;;;;;;;;;2.80;78.00;;;;;;5013506;28;1988;-68
2022/11/18 11:26:45;;;;;;;;;;;2.90;77.80;;;;;;5013359;28;1406;-68
2022/11/18 11:29:37;;;;;;;;;;;2.90;77.90;;;;;;5011169;28;1247;-68
2022/11/18 11:32:10;;;;;;;;;;;3.00;78.30;;;;;;5011606;28;1707;-67
2022/11/18 11:34:42;;;;;;;;;;;2.90;76.70;;;;;;5013633;28;1152;-67
2022/11/18 11:37:14;;;;;;;;;;;3.00;77.70;;;;;;5012255;28;1755;-68
2022/11/18 11:39:49;;;;;;;;;;;3.00;76.60;;;;;;5014629;28;994;-67
2022/11/18 11:42:27;;;;;;;;;;;2.90;76.80;;;;;;5013431;28;1914;-69
2022/11/18 11:45:01;;;;;;;;;;;2.80;77.40;;;;;;5010776;28;1727;-68
2022/11/18 11:47:49;;;;;;;;;;;3.00;78.20;;;;;;5011092;28;1672;-69
2022/11/18 11:50:19;;;;;;;;;;;3.20;78.00;;;;;;5013192;28;1056;-68
2022/11/18 11:52:50;;;;;;;;;;;3.40;77.90;;;;;;5008862;28;1604;-68
2022/11/18 11:55:19;;;;;;;;;;;3.20;76.80;;;;;;5011488;28;1712;-68
2022/11/18 11:57:57;;;;;;;;;;;3.00;77.50;;;;;;5012801;28;1084;-69
2022/11/18 12:00:24;;;;;;;;;;;3.10;77.70;;;;;;5013480;28;1612;-68
2022/11/18 12:03:00;;;;;;;;;;;3.20;77.30;;;;;;5013672;28;1911;-69
2022/11/18 12:05:30;;;;;;;;;;;3.10;78.20;;;;;;5013636;28;1076;-68
2022/11/18 12:07:59;;;;;;;;;;;3.20;76.90;;;;;;5013505;28;1086;-69
2022/11/18 12:10:37;;;;;;;;;;;3.10;76.40;;;;;;5013543;28;990;-66
2022/11/18 12:13:17;;;;;;;;;;;3.20;77.40;;;;;;5013802;28;1368;-69
2022/11/18 12:15:48;;;;;;;;;;;3.20;77.10;;;;;;5012503;28;1473;-69
2022/11/18 12:18:19;;;;;;;;;;;3.10;77.60;;;;;;5012703;28;1683;-68
2022/11/18 12:20:48;;;;;;;;;;;3.10;77.50;;;;;;5013365;28;1662;-69
2022/11/18 12:23:19;;;;;;;;;;;3.30;77.30;;;;;;5013544;28;1931;-69
2022/11/18 12:25:51;;;;;;;;;;;3.30;76.10;;;;;;5012722;28;1473;-69
2022/11/18 12:28:24;;;;;;;;;;;3.30;76.40;;;;;;5013053;28;1743;-69
2022/11/18 12:31:06;;;;;;;;;;;3.30;77.10;;;;;;5012742;28;998;-68
2022/11/18 12:33:41;;;;;;;;;;;3.20;76.40;;;;;;5021960;28;1383;-68
2022/11/18 12:36:09;;;;;;;;;;;3.10;77.60;;;;;;5032401;28;1089;-68
2022/11/18 12:38:37;;;;;;;;;;;3.20;76.80;;;;;;5013077;28;1049;-67
2022/11/18 12:44:11;;;;;;;;;;;3.00;77.00;;;;;;5012625;28;1934;-68
2022/11/18 12:46:53;;;;;;;;;;;3.50;76.10;;;;;;5013906;28;1562;-68
2022/11/18 12:49:39;;;;;;;;;;;3.20;78.60;;;;;;5013105;28;1542;-68
2022/11/18 12:52:27;;;;;;;;;;;2.90;76.80;;;;;;5013307;28;1275;-67
2022/11/18 12:54:58;;;;;;;;;;;3.00;76.10;;;;;;5013425;28;1328;-69
2022/11/18 12:57:27;;;;;;;;;;;3.00;76.60;;;;;;5013167;28;998;-70
2022/11/18 12:59:55;;;;;;;;;;;2.80;76.50;;;;;;5013557;28;1022;-69
2022/11/18 13:02:23;;;;;;;;;;;2.80;76.70;;;;;;5012050;28;1549;-67
2022/11/18 13:05:05;;;;;;;;;;;2.80;77.40;;;;;;5012514;28;1910;-67
2022/11/18 13:10:23;;;;;;;;;;;2.80;76.80;;;;;;5012849;28;896;-68
2022/11/18 13:12:51;;;;;;;;;;;2.80;77.10;;;;;;5013022;28;1378;-69
2022/11/18 13:18:11;;;;;;;;;;;2.80;76.40;;;;;;5011774;28;1703;-67
2022/11/18 13:20:39;;;;;;;;;;;2.70;77.20;;;;;;5011992;28;1064;-69
2022/11/18 13:26:14;;;;;;;;;;;2.70;76.30;;;;;;5011604;28;1727;-68
2022/11/18 13:28:45;;;;;;;;;;;2.90;76.40;;;;;;5011929;28;1596;-68
2022/11/18 13:31:15;;;;;;;;;;;2.60;77.50;;;;;;5011775;28;1393;-68
2022/11/18 13:33:43;;;;;;;;;;;2.60;76.60;;;;;;5011875;28;1506;-66
2022/11/18 13:36:17;;;;;;;;;;;2.60;77.20;;;;;;5012414;28;1342;-67
2022/11/18 13:38:54;;;;;;;;;;;2.60;76.20;;;;;;5010334;28;1704;-68
2022/11/18 13:41:31;;;;;;;;;;;2.60;76.60;;;;;;5012014;28;1594;-67
2022/11/18 13:44:12;;;;;;;;;;;2.40;76.40;;;;;;5014332;28;1910;-68
2022/11/18 13:46:40;;;;;;;;;;;2.40;76.70;;;;;;5013149;28;1628;-68
2022/11/18 13:49:13;;;;;;;;;;;2.40;76.60;;;;;;5014129;28;1124;-67
2022/11/18 13:51:41;;;;;;;;;;;2.40;76.10;;;;;;5015005;28;1365;-68
2022/11/18 13:54:11;;;;;;;;;;;2.30;76.00;;;;;;5016315;28;1584;-67
2022/11/18 13:56:40;;;;;;;;;;;2.40;76.40;;;;;;5015917;28;1699;-68
2022/11/18 13:59:15;;;;;;;;;;;2.50;75.70;;;;;;5017022;28;1108;-68
2022/11/18 14:01:45;;;;;;;;;;;2.30;76.00;;;;;;5013720;28;1416;-67
2022/11/18 14:04:18;;;;;;;;;;;2.30;75.50;;;;;;5015903;28;1985;-69
2022/11/18 14:06:45;;;;;;;;;;;2.40;75.80;;;;;;5013954;28;1668;-67
2022/11/18 14:09:18;;;;;;;;;;;2.40;75.50;;;;;;5015265;28;1061;-68
2022/11/18 14:11:58;;;;;;;;;;;2.30;76.00;;;;;;5015913;28;1834;-69
2022/11/18 14:14:31;;;;;;;;;;;2.30;76.00;;;;;;5014235;28;1167;-69
2022/11/18 14:17:14;;;;;;;;;;;2.30;77.20;;;;;;5015198;28;1108;-69
2022/11/18 14:19:42;;;;;;;;;;;2.30;77.00;;;;;;5014412;28;1607;-68
2022/11/18 14:22:12;;;;;;;;;;;2.30;76.40;;;;;;5015624;28;1294;-68
2022/11/18 14:24:40;;;;;;;;;;;2.30;75.90;;;;;;5015640;28;2004;-69
2022/11/18 14:27:27;;;;;;;;;;;2.20;76.60;;;;;;5015122;28;970;-68
2022/11/18 14:29:56;;;;;;;;;;;2.20;76.80;;;;;;5014951;28;2042;-68
2022/11/18 14:32:23;;;;;;;;;;;2.20;77.10;;;;;;5015094;28;1386;-71
2022/11/18 14:34:57;;;;;;;;;;;2.10;77.00;;;;;;5013300;28;1405;-71
2022/11/18 14:37:24;;;;;;;;;;;2.10;77.90;;;;;;5015330;28;1090;-72
2022/11/18 14:39:54;;;;;;;;;;;2.10;77.70;;;;;;5014351;28;1946;-73
2022/11/18 14:42:22;;;;;;;;;;;2.00;78.40;;;;;;5015444;28;1407;-71
2022/11/18 14:44:50;;;;;;;;;;;2.00;78.10;;;;;;5032324;28;1956;-70
2022/11/18 14:47:22;;;;;;;;;;;2.00;78.90;;;;;;5023205;28;1017;-69
2022/11/18 14:49:49;;;;;;;;;;;1.90;79.00;;;;;;5015575;28;2014;-70
2022/11/18 14:52:17;;;;;;;;;;;1.90;79.10;;;;;;5013270;28;1687;-70
2022/11/18 14:54:44;;;;;;;;;;;2.10;79.80;;;;;;5014962;28;1050;-71
2022/11/18 14:57:14;;;;;;;;;;;1.80;80.10;;;;;;5014343;28;1072;-70
2022/11/18 14:59:42;;;;;;;;;;;1.80;80.10;;;;;;5014559;28;1104;-71
2022/11/18 15:02:13;;;;;;;;;;;1.80;81.00;;;;;;5014146;28;2029;-68
2022/11/18 15:04:42;;;;;;;;;;;1.70;81.40;;;;;;5015018;28;1906;-70
2022/11/18 15:07:12;;;;;;;;;;;1.70;83.60;;;;;;5014278;28;1101;-71
2022/11/18 15:09:45;;;;;;;;;;;1.60;83.40;;;;;;5014278;28;1461;-69
2022/11/18 15:12:12;;;;;;;;;;;1.50;83.90;;;;;;5013737;28;1261;-69
2022/11/18 15:14:40;;;;;;;;;;;1.50;84.10;;;;;;5014923;28;1108;-70
2022/11/18 15:17:12;;;;;;;;;;;1.50;84.90;;;;;;5014298;28;1069;-69
2022/11/18 15:19:40;;;;;;;;;;;1.50;84.30;;;;;;5014357;28;1094;-72
2022/11/18 15:22:09;;;;;;;;;;;1.50;85.30;;;;;;5013586;28;1303;-69
2022/11/18 15:24:37;;;;;;;;;;;1.50;85.10;;;;;;5014619;28;1984;-70
2022/11/18 15:27:04;;;;;;;;;;;1.50;85.30;;;;;;5013439;28;1163;-69
2022/11/18 15:29:32;;;;;;;;;;;1.40;86.00;;;;;;5014439;28;1216;-69
2022/11/18 15:32:03;;;;;;;;;;;1.40;84.90;;;;;;5014690;28;1299;-69
2022/11/18 15:34:31;;;;;;;;;;;1.40;85.70;;;;;;5013564;28;1371;-69
2022/11/18 15:36:59;;;;;;;;;;;1.60;86.90;;;;;;5014222;28;1049;-70